Bowen Airport, Australia

9:04 AM AEST on December 04, 2016 (GMT +1000)
Delta | | Change Station

Elev 43 ft 20.02 °S, 148.19 °E | Updated 2 minutes ago

Clear
Clear
86.5 °F
Feels Like 93 °F
N
6.9
Wind Variable Wind from North
Gusts 14.0 mph

Today
High -- | Low -- °F
--% Chance of Precip.
Yesterday
High -- | Low -- °F
Precip. -- in
Pressure 30.01 in
Visibility 6.2 miles
Clouds
Heat Index 93 °F
Dew Point 72 °F
Humidity 62%
Rainfall 0.00 in
Snow Depth Not available.
5:19 AM 6:35 PM
Waxing Crescent, 18% visible
METAR YBHM 032300Z AUTO 11008KT 9999 // NCD 29/21 Q1016
Pressure 30.01 in
Visibility 6.2 miles
Clouds
Heat Index 93 °F
Dew Point 72 °F
Humidity 62%
Rainfall 0.00 in
Snow Depth Not available.
5:19 AM 6:35 PM
Waxing Crescent, 18% visible
METAR YBHM 032300Z AUTO 11008KT 9999 // NCD 29/21 Q1016

10-Day Weather Forecast

×

Almanac

Astronomy

Dec. 04, 2016 Rise Set
Actual Time
Civil Twilight
Nautical Twilight
Astronomical Twilight
Moon
Length of Visible Light
Length of Day
Tomorrow will be .
, % of the Moon is Illuminated

Today's Extremes

Country Highs Country Lows

Community

WunderPhotos

Upload Photos

1,955,540 photos uploaded!

WunderBlog® & News

Nearby

Air Quality

  Air Quality AQ Index Pollutant
Not available.

Snow Depth

Station Depth Elevation

Earthquake Activity

City Distance Mag. Time & Date
Minimum magnitude displayed is 2.5.

Coastal Water Temperatures

Place Temperature

Stations

Nearby Weather Stations

Station Location Temp. Windchill Dew Point Humidity Wind Precip. Elev Updated Type